Angler Guide Weather for Buttonville -
Buttonville, Ontario Current Weather Conditions
Enter your "Place, State", US Zip Code or ICAO:  
Forecast Information Radar Information
Buttonville, Ontario, Canada  Lat: 43.85N, Lon: 79.37W
ICAO Used: CYTZ
Current Conditions
Updated:
Sun & Moon Information:
Temp: N/A
Humidity: N/A
Wind Speed: N/A
Barometer: N/A
Dewpoint: N/A
Heat Index: N/A
Wind Chill: N/A
Civil Twilight: 7:03 AM EDT
Moonrise: 5:04 AM EDT Moon Phase:
Waning Crescent Moon
Waning Crescent Moon
Moonset: 5:52 PM EDT
Sunrise: 7:32 AM EDT
Sunset: 6:30 PM EDT
Civil Twilight: 7:00 PM EDT
Forecast for Buttonville, ON:
(Forecast based on TAF for )
0705 PM EDT MON NOV 06 2006
  
EVENINGOVERNIGHT
MISTMIST
MistMist
TAF based forecast:
Dated: 0705 PM EDT MON NOV 06 2006
Evening...Partly cloudy with winds from the east at 9 mph. Possible periods of mist.
Overnight...Partly cloudy with winds from the east at 9 mph. Possible periods of mist.
Original Encoded TAF:
Dated: 0705 PM EDT MON NOV 06 2006
2006/11/06 23:05
CYTZ 062305Z 062304 09008KT P6SM FEW060 TEMPO 2304 4SM BR=




Powered by Angler Guide.com
Copyright 2007, all rights reserved.